sensor_id;sensor_type;location;lat;lon;timestamp;temperature;humidity
22666;DHT22;11499;49.486;11.104;2022-08-19T00:01:53;18.90;99.90
22666;DHT22;11499;49.486;11.104;2022-08-19T00:04:23;19.00;99.90
22666;DHT22;11499;49.486;11.104;2022-08-19T00:09:28;19.00;99.90
22666;DHT22;11499;49.486;11.104;2022-08-19T00:11:55;19.00;99.90
22666;DHT22;11499;49.486;11.104;2022-08-19T00:14:21;19.00;99.90
22666;DHT22;11499;49.486;11.104;2022-08-19T00:16:48;19.00;99.90
22666;DHT22;11499;49.486;11.104;2022-08-19T00:19:15;19.00;99.90
22666;DHT22;11499;49.486;11.104;2022-08-19T00:21:40;19.00;99.90
22666;DHT22;11499;49.486;11.104;2022-08-19T00:24:11;19.00;99.90
22666;DHT22;11499;49.486;11.104;2022-08-19T00:26:38;18.90;99.90
22666;DHT22;11499;49.486;11.104;2022-08-19T00:29:05;18.90;99.90
22666;DHT22;11499;49.486;11.104;2022-08-19T00:31:32;18.90;99.90
22666;DHT22;11499;49.486;11.104;2022-08-19T00:36:39;18.90;99.90
22666;DHT22;11499;49.486;11.104;2022-08-19T00:39:05;18.90;99.90
22666;DHT22;11499;49.486;11.104;2022-08-19T00:41:31;18.90;99.90
22666;DHT22;11499;49.486;11.104;2022-08-19T00:44:19;19.00;99.90
22666;DHT22;11499;49.486;11.104;2022-08-19T00:46:47;19.10;99.90
22666;DHT22;11499;49.486;11.104;2022-08-19T00:51:45;19.00;99.90
22666;DHT22;11499;49.486;11.104;2022-08-19T00:54:11;19.00;99.90
22666;DHT22;11499;49.486;11.104;2022-08-19T00:56:38;19.00;99.90
22666;DHT22;11499;49.486;11.104;2022-08-19T00:59:04;19.00;99.90
22666;DHT22;11499;49.486;11.104;2022-08-19T01:04:50;19.10;99.90
22666;DHT22;11499;49.486;11.104;2022-08-19T01:07:16;19.10;99.90
22666;DHT22;11499;49.486;11.104;2022-08-19T01:09:42;19.10;99.90
22666;DHT22;11499;49.486;11.104;2022-08-19T01:12:08;19.10;99.90
22666;DHT22;11499;49.486;11.104;2022-08-19T01:14:35;19.10;99.90
22666;DHT22;11499;49.486;11.104;2022-08-19T01:17:01;19.10;99.90
22666;DHT22;11499;49.486;11.104;2022-08-19T01:19:33;19.10;99.90
22666;DHT22;11499;49.486;11.104;2022-08-19T01:22:11;19.10;99.90
22666;DHT22;11499;49.486;11.104;2022-08-19T01:24:37;19.10;99.90
22666;DHT22;11499;49.486;11.104;2022-08-19T01:27:06;19.10;99.90
22666;DHT22;11499;49.486;11.104;2022-08-19T01:32:20;19.10;99.90
22666;DHT22;11499;49.486;11.104;2022-08-19T01:34:46;19.10;99.90
22666;DHT22;11499;49.486;11.104;2022-08-19T01:37:13;19.10;99.90
22666;DHT22;11499;49.486;11.104;2022-08-19T01:39:40;19.10;99.90
22666;DHT22;11499;49.486;11.104;2022-08-19T01:42:07;19.10;99.90
22666;DHT22;11499;49.486;11.104;2022-08-19T01:44:36;19.10;99.90
22666;DHT22;11499;49.486;11.104;2022-08-19T01:47:03;19.10;99.90
22666;DHT22;11499;49.486;11.104;2022-08-19T01:49:29;19.10;99.90
22666;DHT22;11499;49.486;11.104;2022-08-19T01:51:55;19.10;99.90
22666;DHT22;11499;49.486;11.104;2022-08-19T01:54:23;19.10;99.90
22666;DHT22;11499;49.486;11.104;2022-08-19T01:59:37;19.10;99.90
22666;DHT22;11499;49.486;11.104;2022-08-19T02:02:05;19.10;99.90
22666;DHT22;11499;49.486;11.104;2022-08-19T02:04:33;19.10;99.90
22666;DHT22;11499;49.486;11.104;2022-08-19T02:06:59;19.10;99.90
22666;DHT22;11499;49.486;11.104;2022-08-19T02:09:25;19.10;99.90
22666;DHT22;11499;49.486;11.104;2022-08-19T02:11:50;19.10;99.90
22666;DHT22;11499;49.486;11.104;2022-08-19T02:14:16;19.10;99.90
22666;DHT22;11499;49.486;11.104;2022-08-19T02:16:41;19.10;99.90
22666;DHT22;11499;49.486;11.104;2022-08-19T02:19:07;19.10;99.90
22666;DHT22;11499;49.486;11.104;2022-08-19T02:21:33;19.20;99.90
22666;DHT22;11499;49.486;11.104;2022-08-19T02:26:39;19.10;99.90
22666;DHT22;11499;49.486;11.104;2022-08-19T02:29:04;19.10;99.90
22666;DHT22;11499;49.486;11.104;2022-08-19T02:31:30;19.10;99.90
22666;DHT22;11499;49.486;11.104;2022-08-19T02:33:56;19.10;99.90
22666;DHT22;11499;49.486;11.104;2022-08-19T02:36:23;19.20;99.90
22666;DHT22;11499;49.486;11.104;2022-08-19T02:38:49;19.20;99.90
22666;DHT22;11499;49.486;11.104;2022-08-19T02:41:21;19.20;99.90
22666;DHT22;11499;49.486;11.104;2022-08-19T02:43:47;19.20;99.90
22666;DHT22;11499;49.486;11.104;2022-08-19T02:46:22;19.20;99.90
22666;DHT22;11499;49.486;11.104;2022-08-19T02:48:49;19.20;99.90
22666;DHT22;11499;49.486;11.104;2022-08-19T02:54:31;19.20;99.90
22666;DHT22;11499;49.486;11.104;2022-08-19T02:56:56;19.20;99.90
22666;DHT22;11499;49.486;11.104;2022-08-19T02:59:22;19.20;99.90
22666;DHT22;11499;49.486;11.104;2022-08-19T03:01:47;19.20;99.90
22666;DHT22;11499;49.486;11.104;2022-08-19T03:04:14;19.20;99.90
22666;DHT22;11499;49.486;11.104;2022-08-19T03:06:43;19.20;99.90
22666;DHT22;11499;49.486;11.104;2022-08-19T03:09:09;19.20;99.90
22666;DHT22;11499;49.486;11.104;2022-08-19T03:11:35;19.20;99.90
22666;DHT22;11499;49.486;11.104;2022-08-19T03:14:03;19.20;99.90
22666;DHT22;11499;49.486;11.104;2022-08-19T03:16:32;19.20;99.90
22666;DHT22;11499;49.486;11.104;2022-08-19T03:22:07;19.20;99.90
22666;DHT22;11499;49.486;11.104;2022-08-19T03:24:33;19.20;99.90
22666;DHT22;11499;49.486;11.104;2022-08-19T03:26:58;19.10;99.90
22666;DHT22;11499;49.486;11.104;2022-08-19T03:29:27;19.10;99.90
22666;DHT22;11499;49.486;11.104;2022-08-19T03:31:53;19.10;99.90
22666;DHT22;11499;49.486;11.104;2022-08-19T03:34:22;19.10;99.90
22666;DHT22;11499;49.486;11.104;2022-08-19T03:36:51;19.10;99.90
22666;DHT22;11499;49.486;11.104;2022-08-19T03:39:17;19.10;99.90
22666;DHT22;11499;49.486;11.104;2022-08-19T03:41:44;19.10;99.90
22666;DHT22;11499;49.486;11.104;2022-08-19T03:44:10;19.10;99.90
22666;DHT22;11499;49.486;11.104;2022-08-19T03:50:20;19.00;99.90
22666;DHT22;11499;49.486;11.104;2022-08-19T03:52:50;19.00;99.90
22666;DHT22;11499;49.486;11.104;2022-08-19T03:55:16;19.00;99.90
22666;DHT22;11499;49.486;11.104;2022-08-19T03:57:42;19.00;99.90
22666;DHT22;11499;49.486;11.104;2022-08-19T04:00:08;19.10;99.90
22666;DHT22;11499;49.486;11.104;2022-08-19T04:02:34;19.10;99.90
22666;DHT22;11499;49.486;11.104;2022-08-19T04:05:00;19.10;99.90
22666;DHT22;11499;49.486;11.104;2022-08-19T04:07:25;19.10;99.90
22666;DHT22;11499;49.486;11.104;2022-08-19T04:09:51;19.10;99.90
22666;DHT22;11499;49.486;11.104;2022-08-19T04:12:17;19.00;99.90
22666;DHT22;11499;49.486;11.104;2022-08-19T04:17:25;19.10;99.90
22666;DHT22;11499;49.486;11.104;2022-08-19T04:19:51;19.10;99.90
22666;DHT22;11499;49.486;11.104;2022-08-19T04:22:16;19.10;99.90
22666;DHT22;11499;49.486;11.104;2022-08-19T04:24:43;19.10;99.90
22666;DHT22;11499;49.486;11.104;2022-08-19T04:27:09;19.00;99.90
22666;DHT22;11499;49.486;11.104;2022-08-19T04:29:34;19.20;99.90
22666;DHT22;11499;49.486;11.104;2022-08-19T04:32:00;19.20;99.90
22666;DHT22;11499;49.486;11.104;2022-08-19T04:34:28;19.20;99.90
22666;DHT22;11499;49.486;11.104;2022-08-19T04:36:56;19.20;99.90
22666;DHT22;11499;49.486;11.104;2022-08-19T04:39:24;19.20;99.90
22666;DHT22;11499;49.486;11.104;2022-08-19T04:45:22;19.20;99.90
22666;DHT22;11499;49.486;11.104;2022-08-19T04:47:48;19.20;99.90
22666;DHT22;11499;49.486;11.104;2022-08-19T04:50:14;19.20;99.90
22666;DHT22;11499;49.486;11.104;2022-08-19T04:52:39;19.20;99.90
22666;DHT22;11499;49.486;11.104;2022-08-19T04:55:09;19.20;99.90
22666;DHT22;11499;49.486;11.104;2022-08-19T04:57:36;19.20;99.90
22666;DHT22;11499;49.486;11.104;2022-08-19T05:00:06;19.30;99.90
22666;DHT22;11499;49.486;11.104;2022-08-19T05:02:32;19.40;99.90
22666;DHT22;11499;49.486;11.104;2022-08-19T05:04:58;19.40;99.90
22666;DHT22;11499;49.486;11.104;2022-08-19T05:07:27;19.50;99.90
22666;DHT22;11499;49.486;11.104;2022-08-19T05:09:54;19.60;99.90
22666;DHT22;11499;49.486;11.104;2022-08-19T05:12:20;19.60;99.90
22666;DHT22;11499;49.486;11.104;2022-08-19T05:17:22;19.60;99.90
22666;DHT22;11499;49.486;11.104;2022-08-19T05:19:48;19.70;99.90
22666;DHT22;11499;49.486;11.104;2022-08-19T05:22:32;19.90;99.90
22666;DHT22;11499;49.486;11.104;2022-08-19T05:25:10;19.90;99.90
22666;DHT22;11499;49.486;11.104;2022-08-19T05:27:37;20.00;99.90
22666;DHT22;11499;49.486;11.104;2022-08-19T05:30:04;20.10;99.90
22666;DHT22;11499;49.486;11.104;2022-08-19T05:32:29;20.10;99.90
22666;DHT22;11499;49.486;11.104;2022-08-19T05:34:55;20.20;99.90
22666;DHT22;11499;49.486;11.104;2022-08-19T05:37:21;20.20;99.90
22666;DHT22;11499;49.486;11.104;2022-08-19T05:39:47;20.20;99.90
22666;DHT22;11499;49.486;11.104;2022-08-19T05:45:14;20.30;99.90
22666;DHT22;11499;49.486;11.104;2022-08-19T05:47:39;20.20;99.90
22666;DHT22;11499;49.486;11.104;2022-08-19T05:50:05;20.20;99.90
22666;DHT22;11499;49.486;11.104;2022-08-19T05:52:30;20.50;99.90
22666;DHT22;11499;49.486;11.104;2022-08-19T05:54:56;20.80;99.90
22666;DHT22;11499;49.486;11.104;2022-08-19T05:57:23;21.20;99.90
22666;DHT22;11499;49.486;11.104;2022-08-19T05:59:49;21.40;99.90
22666;DHT22;11499;49.486;11.104;2022-08-19T06:02:16;21.70;99.90
22666;DHT22;11499;49.486;11.104;2022-08-19T06:04:42;22.00;99.90
22666;DHT22;11499;49.486;11.104;2022-08-19T06:07:10;22.00;99.90
22666;DHT22;11499;49.486;11.104;2022-08-19T06:12:16;22.00;99.90
22666;DHT22;11499;49.486;11.104;2022-08-19T06:14:41;22.10;99.90
22666;DHT22;11499;49.486;11.104;2022-08-19T06:17:07;21.80;99.90
22666;DHT22;11499;49.486;11.104;2022-08-19T06:19:32;22.00;99.90
22666;DHT22;11499;49.486;11.104;2022-08-19T06:21:59;22.00;99.90
22666;DHT22;11499;49.486;11.104;2022-08-19T06:24:26;21.90;99.90
22666;DHT22;11499;49.486;11.104;2022-08-19T06:26:55;22.00;99.90
22666;DHT22;11499;49.486;11.104;2022-08-19T06:29:23;21.60;99.90
22666;DHT22;11499;49.486;11.104;2022-08-19T06:31:52;21.60;99.90
22666;DHT22;11499;49.486;11.104;2022-08-19T06:34:19;22.10;99.90
22666;DHT22;11499;49.486;11.104;2022-08-19T06:39:35;22.20;99.90
22666;DHT22;11499;49.486;11.104;2022-08-19T06:42:03;22.20;99.90
22666;DHT22;11499;49.486;11.104;2022-08-19T06:44:33;22.00;99.90
22666;DHT22;11499;49.486;11.104;2022-08-19T06:47:01;21.90;99.90
22666;DHT22;11499;49.486;11.104;2022-08-19T06:49:27;21.60;99.90
22666;DHT22;11499;49.486;11.104;2022-08-19T06:51:56;21.40;99.90
22666;DHT22;11499;49.486;11.104;2022-08-19T06:54:23;21.50;99.90
22666;DHT22;11499;49.486;11.104;2022-08-19T06:56:48;21.30;99.90
22666;DHT22;11499;49.486;11.104;2022-08-19T06:59:17;21.20;99.90
22666;DHT22;11499;49.486;11.104;2022-08-19T07:01:48;21.10;99.90
22666;DHT22;11499;49.486;11.104;2022-08-19T07:07:11;21.30;99.90
22666;DHT22;11499;49.486;11.104;2022-08-19T07:09:39;21.70;99.90
22666;DHT22;11499;49.486;11.104;2022-08-19T07:12:08;22.00;99.90
22666;DHT22;11499;49.486;11.104;2022-08-19T07:14:36;22.00;99.90
22666;DHT22;11499;49.486;11.104;2022-08-19T07:17:10;22.00;99.90
22666;DHT22;11499;49.486;11.104;2022-08-19T07:19:36;21.80;99.90
22666;DHT22;11499;49.486;11.104;2022-08-19T07:22:04;21.70;99.90
22666;DHT22;11499;49.486;11.104;2022-08-19T07:24:30;21.60;99.90
22666;DHT22;11499;49.486;11.104;2022-08-19T07:26:58;21.50;99.90
22666;DHT22;11499;49.486;11.104;2022-08-19T07:29:26;21.60;99.90
22666;DHT22;11499;49.486;11.104;2022-08-19T07:34:11;21.40;99.90
22666;DHT22;11499;49.486;11.104;2022-08-19T07:36:40;21.40;99.90
22666;DHT22;11499;49.486;11.104;2022-08-19T07:39:11;21.20;99.90
22666;DHT22;11499;49.486;11.104;2022-08-19T07:41:37;21.20;99.90
22666;DHT22;11499;49.486;11.104;2022-08-19T07:44:05;21.10;99.90
22666;DHT22;11499;49.486;11.104;2022-08-19T07:46:35;21.00;99.90
22666;DHT22;11499;49.486;11.104;2022-08-19T07:49:02;20.80;99.90
22666;DHT22;11499;49.486;11.104;2022-08-19T07:51:28;20.60;99.90
22666;DHT22;11499;49.486;11.104;2022-08-19T07:53:54;20.60;99.90
22666;DHT22;11499;49.486;11.104;2022-08-19T07:56:20;20.80;99.90
22666;DHT22;11499;49.486;11.104;2022-08-19T08:00:40;20.80;99.90
22666;DHT22;11499;49.486;11.104;2022-08-19T08:03:06;20.90;99.90
22666;DHT22;11499;49.486;11.104;2022-08-19T08:05:33;21.10;99.90
22666;DHT22;11499;49.486;11.104;2022-08-19T08:08:18;21.00;99.90
22666;DHT22;11499;49.486;11.104;2022-08-19T08:11:06;21.00;99.90
22666;DHT22;11499;49.486;11.104;2022-08-19T08:13:32;21.20;99.90
22666;DHT22;11499;49.486;11.104;2022-08-19T08:16:01;21.30;99.90
22666;DHT22;11499;49.486;11.104;2022-08-19T08:18:27;21.30;99.90
22666;DHT22;11499;49.486;11.104;2022-08-19T08:20:54;21.50;99.90
22666;DHT22;11499;49.486;11.104;2022-08-19T08:23:20;21.30;99.90
22666;DHT22;11499;49.486;11.104;2022-08-19T08:28:17;21.20;99.90
22666;DHT22;11499;49.486;11.104;2022-08-19T08:30:42;21.20;99.90
22666;DHT22;11499;49.486;11.104;2022-08-19T08:33:09;21.10;99.90
22666;DHT22;11499;49.486;11.104;2022-08-19T08:35:35;21.40;99.90
22666;DHT22;11499;49.486;11.104;2022-08-19T08:38:01;21.60;99.90
22666;DHT22;11499;49.486;11.104;2022-08-19T08:43:31;21.60;99.90
22666;DHT22;11499;49.486;11.104;2022-08-19T08:46:08;21.60;99.90
22666;DHT22;11499;49.486;11.104;2022-08-19T08:48:54;21.70;99.90
22666;DHT22;11499;49.486;11.104;2022-08-19T08:54:20;21.60;99.90
22666;DHT22;11499;49.486;11.104;2022-08-19T08:56:47;21.20;99.90
22666;DHT22;11499;49.486;11.104;2022-08-19T08:59:20;21.20;99.90
22666;DHT22;11499;49.486;11.104;2022-08-19T09:01:47;21.10;99.90
22666;DHT22;11499;49.486;11.104;2022-08-19T09:04:13;20.80;99.90
22666;DHT22;11499;49.486;11.104;2022-08-19T09:06:55;20.60;99.90
22666;DHT22;11499;49.486;11.104;2022-08-19T09:09:38;20.70;99.90
22666;DHT22;11499;49.486;11.104;2022-08-19T09:12:18;20.70;99.90
22666;DHT22;11499;49.486;11.104;2022-08-19T09:14:53;20.80;99.90
22666;DHT22;11499;49.486;11.104;2022-08-19T09:17:24;21.10;99.90
22666;DHT22;11499;49.486;11.104;2022-08-19T09:21:58;21.10;99.90
22666;DHT22;11499;49.486;11.104;2022-08-19T09:24:25;21.20;99.90
22666;DHT22;11499;49.486;11.104;2022-08-19T09:26:51;21.10;99.90
22666;DHT22;11499;49.486;11.104;2022-08-19T09:29:16;21.20;99.90
22666;DHT22;11499;49.486;11.104;2022-08-19T09:31:42;20.90;99.90
22666;DHT22;11499;49.486;11.104;2022-08-19T09:34:08;20.90;99.90
22666;DHT22;11499;49.486;11.104;2022-08-19T09:36:33;20.90;99.90
22666;DHT22;11499;49.486;11.104;2022-08-19T09:39:03;20.90;99.90
22666;DHT22;11499;49.486;11.104;2022-08-19T09:41:29;21.00;99.90
22666;DHT22;11499;49.486;11.104;2022-08-19T09:43:56;21.10;99.90
22666;DHT22;11499;49.486;11.104;2022-08-19T09:49:04;21.20;99.90
22666;DHT22;11499;49.486;11.104;2022-08-19T09:51:32;21.60;99.90
22666;DHT22;11499;49.486;11.104;2022-08-19T09:54:00;21.90;99.90
22666;DHT22;11499;49.486;11.104;2022-08-19T09:56:27;21.70;99.90
22666;DHT22;11499;49.486;11.104;2022-08-19T09:58:53;21.80;99.90
22666;DHT22;11499;49.486;11.104;2022-08-19T10:01:24;21.90;99.90
22666;DHT22;11499;49.486;11.104;2022-08-19T10:03:54;21.70;99.90
22666;DHT22;11499;49.486;11.104;2022-08-19T10:06:22;21.70;99.90
22666;DHT22;11499;49.486;11.104;2022-08-19T10:08:48;21.60;99.90
22666;DHT22;11499;49.486;11.104;2022-08-19T10:11:14;21.80;99.90
22666;DHT22;11499;49.486;11.104;2022-08-19T10:16:21;22.00;99.90
22666;DHT22;11499;49.486;11.104;2022-08-19T10:18:48;22.00;99.90
22666;DHT22;11499;49.486;11.104;2022-08-19T10:21:24;21.90;99.90
22666;DHT22;11499;49.486;11.104;2022-08-19T10:23:51;21.70;99.90
22666;DHT22;11499;49.486;11.104;2022-08-19T10:26:23;21.60;99.90
22666;DHT22;11499;49.486;11.104;2022-08-19T10:28:49;21.50;99.90
22666;DHT22;11499;49.486;11.104;2022-08-19T10:31:20;21.60;99.90
22666;DHT22;11499;49.486;11.104;2022-08-19T10:33:47;21.70;99.90
22666;DHT22;11499;49.486;11.104;2022-08-19T10:36:18;21.60;99.90
22666;DHT22;11499;49.486;11.104;2022-08-19T10:38:45;21.70;99.90
22666;DHT22;11499;49.486;11.104;2022-08-19T10:43:46;21.80;99.90
22666;DHT22;11499;49.486;11.104;2022-08-19T10:46:15;21.70;99.90
22666;DHT22;11499;49.486;11.104;2022-08-19T10:48:42;21.70;99.90
22666;DHT22;11499;49.486;11.104;2022-08-19T10:51:09;21.70;99.90
22666;DHT22;11499;49.486;11.104;2022-08-19T10:53:54;21.80;99.90
22666;DHT22;11499;49.486;11.104;2022-08-19T10:56:20;21.90;99.90
22666;DHT22;11499;49.486;11.104;2022-08-19T10:59:05;22.00;99.90
22666;DHT22;11499;49.486;11.104;2022-08-19T11:01:31;22.20;99.90
22666;DHT22;11499;49.486;11.104;2022-08-19T11:03:59;22.10;99.90
22666;DHT22;11499;49.486;11.104;2022-08-19T11:09:05;22.00;99.90
22666;DHT22;11499;49.486;11.104;2022-08-19T11:11:31;21.80;99.90
22666;DHT22;11499;49.486;11.104;2022-08-19T11:14:07;21.70;99.90
22666;DHT22;11499;49.486;11.104;2022-08-19T11:16:33;21.80;99.90
22666;DHT22;11499;49.486;11.104;2022-08-19T11:18:59;21.70;99.90
22666;DHT22;11499;49.486;11.104;2022-08-19T11:21:28;21.50;99.90
22666;DHT22;11499;49.486;11.104;2022-08-19T11:24:03;21.60;99.90
22666;DHT22;11499;49.486;11.104;2022-08-19T11:26:31;21.40;99.90
22666;DHT22;11499;49.486;11.104;2022-08-19T11:28:57;21.20;99.90
22666;DHT22;11499;49.486;11.104;2022-08-19T11:34:09;21.20;99.90
22666;DHT22;11499;49.486;11.104;2022-08-19T11:36:38;21.20;99.90
22666;DHT22;11499;49.486;11.104;2022-08-19T11:39:08;21.20;99.90
22666;DHT22;11499;49.486;11.104;2022-08-19T11:41:35;21.30;99.90
22666;DHT22;11499;49.486;11.104;2022-08-19T11:44:00;21.10;99.90
22666;DHT22;11499;49.486;11.104;2022-08-19T11:46:28;20.80;99.90
22666;DHT22;11499;49.486;11.104;2022-08-19T11:48:55;20.60;99.90
22666;DHT22;11499;49.486;11.104;2022-08-19T11:51:22;20.30;99.90
22666;DHT22;11499;49.486;11.104;2022-08-19T11:53:50;19.90;99.90
22666;DHT22;11499;49.486;11.104;2022-08-19T11:56:16;19.90;99.90
22666;DHT22;11499;49.486;11.104;2022-08-19T12:00:36;20.00;99.90
22666;DHT22;11499;49.486;11.104;2022-08-19T12:03:02;20.10;99.90
22666;DHT22;11499;49.486;11.104;2022-08-19T12:05:28;20.20;99.90
22666;DHT22;11499;49.486;11.104;2022-08-19T12:07:53;20.30;99.90
22666;DHT22;11499;49.486;11.104;2022-08-19T12:10:20;20.40;99.90
22666;DHT22;11499;49.486;11.104;2022-08-19T12:12:45;20.50;99.90
22666;DHT22;11499;49.486;11.104;2022-08-19T12:15:12;20.50;99.90
22666;DHT22;11499;49.486;11.104;2022-08-19T12:17:38;20.50;99.90
22666;DHT22;11499;49.486;11.104;2022-08-19T12:20:05;20.50;99.90
22666;DHT22;11499;49.486;11.104;2022-08-19T12:22:31;20.40;99.90
22666;DHT22;11499;49.486;11.104;2022-08-19T12:27:28;20.50;99.90
22666;DHT22;11499;49.486;11.104;2022-08-19T12:29:53;20.50;99.90
22666;DHT22;11499;49.486;11.104;2022-08-19T12:32:19;20.60;99.90
22666;DHT22;11499;49.486;11.104;2022-08-19T12:34:44;20.70;99.90
22666;DHT22;11499;49.486;11.104;2022-08-19T12:37:12;20.70;99.90
22666;DHT22;11499;49.486;11.104;2022-08-19T12:39:40;20.80;99.90
22666;DHT22;11499;49.486;11.104;2022-08-19T12:42:07;21.00;99.90
22666;DHT22;11499;49.486;11.104;2022-08-19T12:44:34;20.90;99.90
22666;DHT22;11499;49.486;11.104;2022-08-19T12:47:00;20.80;99.90
22666;DHT22;11499;49.486;11.104;2022-08-19T12:49:27;20.60;99.90
22666;DHT22;11499;49.486;11.104;2022-08-19T12:55:26;19.80;99.90
22666;DHT22;11499;49.486;11.104;2022-08-19T12:57:54;19.60;99.90
22666;DHT22;11499;49.486;11.104;2022-08-19T13:00:21;19.50;99.90
22666;DHT22;11499;49.486;11.104;2022-08-19T13:02:49;19.50;99.90
22666;DHT22;11499;49.486;11.104;2022-08-19T13:05:18;19.40;99.90
22666;DHT22;11499;49.486;11.104;2022-08-19T13:07:49;19.50;99.90
22666;DHT22;11499;49.486;11.104;2022-08-19T13:10:17;19.50;99.90
22666;DHT22;11499;49.486;11.104;2022-08-19T13:12:46;19.60;99.90
22666;DHT22;11499;49.486;11.104;2022-08-19T13:15:13;19.70;99.90
22666;DHT22;11499;49.486;11.104;2022-08-19T13:20:40;19.90;99.90
22666;DHT22;11499;49.486;11.104;2022-08-19T13:23:07;19.90;99.90
22666;DHT22;11499;49.486;11.104;2022-08-19T13:25:33;19.80;99.90
22666;DHT22;11499;49.486;11.104;2022-08-19T13:27:59;19.80;99.90
22666;DHT22;11499;49.486;11.104;2022-08-19T13:30:25;19.80;99.90
22666;DHT22;11499;49.486;11.104;2022-08-19T13:33:09;19.80;99.90
22666;DHT22;11499;49.486;11.104;2022-08-19T13:35:48;19.90;99.90
22666;DHT22;11499;49.486;11.104;2022-08-19T13:38:17;19.90;99.90
22666;DHT22;11499;49.486;11.104;2022-08-19T13:40:43;19.90;99.90
22666;DHT22;11499;49.486;11.104;2022-08-19T13:45:47;19.90;99.90
22666;DHT22;11499;49.486;11.104;2022-08-19T13:48:13;19.90;99.90
22666;DHT22;11499;49.486;11.104;2022-08-19T13:50:41;19.80;99.90
22666;DHT22;11499;49.486;11.104;2022-08-19T13:53:08;19.70;99.90
22666;DHT22;11499;49.486;11.104;2022-08-19T13:55:35;19.50;99.90
22666;DHT22;11499;49.486;11.104;2022-08-19T13:58:02;19.50;99.90
22666;DHT22;11499;49.486;11.104;2022-08-19T14:00:31;19.40;99.90
22666;DHT22;11499;49.486;11.104;2022-08-19T14:02:57;19.40;99.90
22666;DHT22;11499;49.486;11.104;2022-08-19T14:05:24;19.30;99.90
22666;DHT22;11499;49.486;11.104;2022-08-19T14:07:50;19.30;99.90
22666;DHT22;11499;49.486;11.104;2022-08-19T14:13:01;19.20;99.90
22666;DHT22;11499;49.486;11.104;2022-08-19T14:15:28;19.10;99.90
22666;DHT22;11499;49.486;11.104;2022-08-19T14:17:55;19.00;99.90
22666;DHT22;11499;49.486;11.104;2022-08-19T14:20:21;19.00;99.90
22666;DHT22;11499;49.486;11.104;2022-08-19T14:22:48;18.90;99.90
22666;DHT22;11499;49.486;11.104;2022-08-19T14:25:17;18.70;99.90
22666;DHT22;11499;49.486;11.104;2022-08-19T14:27:43;18.60;99.90
22666;DHT22;11499;49.486;11.104;2022-08-19T14:30:11;18.50;99.90
22666;DHT22;11499;49.486;11.104;2022-08-19T14:32:37;18.40;99.90
22666;DHT22;11499;49.486;11.104;2022-08-19T14:35:04;18.50;99.90
22666;DHT22;11499;49.486;11.104;2022-08-19T14:40:01;18.40;99.90
22666;DHT22;11499;49.486;11.104;2022-08-19T14:42:26;18.40;99.90
22666;DHT22;11499;49.486;11.104;2022-08-19T14:44:52;18.50;99.90
22666;DHT22;11499;49.486;11.104;2022-08-19T14:47:17;18.60;99.90
22666;DHT22;11499;49.486;11.104;2022-08-19T14:49:43;18.60;99.90
22666;DHT22;11499;49.486;11.104;2022-08-19T14:52:09;18.60;99.90
22666;DHT22;11499;49.486;11.104;2022-08-19T14:54:34;18.60;99.90
22666;DHT22;11499;49.486;11.104;2022-08-19T14:57:00;18.70;99.90
22666;DHT22;11499;49.486;11.104;2022-08-19T14:59:25;18.60;99.90
22666;DHT22;11499;49.486;11.104;2022-08-19T15:04:45;18.60;99.90
22666;DHT22;11499;49.486;11.104;2022-08-19T15:07:11;18.60;99.90
22666;DHT22;11499;49.486;11.104;2022-08-19T15:09:37;18.60;99.90
22666;DHT22;11499;49.486;11.104;2022-08-19T15:12:03;18.60;99.90
22666;DHT22;11499;49.486;11.104;2022-08-19T15:14:32;18.70;99.90
22666;DHT22;11499;49.486;11.104;2022-08-19T15:17:04;18.70;99.90
22666;DHT22;11499;49.486;11.104;2022-08-19T15:19:31;18.80;99.90
22666;DHT22;11499;49.486;11.104;2022-08-19T15:21:58;18.80;99.90
22666;DHT22;11499;49.486;11.104;2022-08-19T15:24:24;18.70;99.90
22666;DHT22;11499;49.486;11.104;2022-08-19T15:30:02;18.80;99.90
22666;DHT22;11499;49.486;11.104;2022-08-19T15:32:27;18.80;99.90
22666;DHT22;11499;49.486;11.104;2022-08-19T15:34:54;18.80;99.90
22666;DHT22;11499;49.486;11.104;2022-08-19T15:37:20;18.70;99.90
22666;DHT22;11499;49.486;11.104;2022-08-19T15:39:48;18.70;99.90
22666;DHT22;11499;49.486;11.104;2022-08-19T15:42:14;18.70;99.90
22666;DHT22;11499;49.486;11.104;2022-08-19T15:44:40;18.70;99.90
22666;DHT22;11499;49.486;11.104;2022-08-19T15:47:05;18.70;99.90
22666;DHT22;11499;49.486;11.104;2022-08-19T15:49:32;18.80;99.90
22666;DHT22;11499;49.486;11.104;2022-08-19T15:55:44;18.50;99.90
22666;DHT22;11499;49.486;11.104;2022-08-19T15:58:12;18.20;99.90
22666;DHT22;11499;49.486;11.104;2022-08-19T16:01:02;18.20;99.90
22666;DHT22;11499;49.486;11.104;2022-08-19T16:03:51;18.20;99.90
22666;DHT22;11499;49.486;11.104;2022-08-19T16:06:36;18.00;99.90
22666;DHT22;11499;49.486;11.104;2022-08-19T16:09:02;17.90;99.90
22666;DHT22;11499;49.486;11.104;2022-08-19T16:11:31;17.80;99.90
22666;DHT22;11499;49.486;11.104;2022-08-19T16:13:58;17.80;99.90
22666;DHT22;11499;49.486;11.104;2022-08-19T16:16:29;17.90;99.90
22666;DHT22;11499;49.486;11.104;2022-08-19T16:21:46;17.90;99.90
22666;DHT22;11499;49.486;11.104;2022-08-19T16:24:13;17.80;99.90
22666;DHT22;11499;49.486;11.104;2022-08-19T16:26:41;17.80;99.90
22666;DHT22;11499;49.486;11.104;2022-08-19T16:29:07;17.80;99.90
22666;DHT22;11499;49.486;11.104;2022-08-19T16:31:34;17.80;99.90
22666;DHT22;11499;49.486;11.104;2022-08-19T16:34:00;17.80;99.90
22666;DHT22;11499;49.486;11.104;2022-08-19T16:36:25;17.80;99.90
22666;DHT22;11499;49.486;11.104;2022-08-19T16:38:53;17.70;99.90
22666;DHT22;11499;49.486;11.104;2022-08-19T16:41:20;17.60;99.90
22666;DHT22;11499;49.486;11.104;2022-08-19T16:46:59;17.60;99.90
22666;DHT22;11499;49.486;11.104;2022-08-19T16:49:25;17.60;99.90
22666;DHT22;11499;49.486;11.104;2022-08-19T16:51:51;17.70;99.90
22666;DHT22;11499;49.486;11.104;2022-08-19T16:54:17;17.70;99.90
22666;DHT22;11499;49.486;11.104;2022-08-19T16:56:43;17.70;99.90
22666;DHT22;11499;49.486;11.104;2022-08-19T16:59:10;17.70;99.90
22666;DHT22;11499;49.486;11.104;2022-08-19T17:01:36;17.70;99.90
22666;DHT22;11499;49.486;11.104;2022-08-19T17:04:02;17.70;99.90
22666;DHT22;11499;49.486;11.104;2022-08-19T17:06:29;17.60;99.90
22666;DHT22;11499;49.486;11.104;2022-08-19T17:08:58;17.50;99.90
22666;DHT22;11499;49.486;11.104;2022-08-19T17:14:04;17.50;99.90